Time;durP1;ratioP1;P1;durP2;ratioP2;P2;SDS_P1;SDS_P2;PMS_P1;PMS_P2;Temp;Humidity;BMP_temperature;BMP_pressure;BME280_temperature;BME280_humidity;BME280_pressure;Samples;Min_cycle;Max_cycle;Signal;HPM_P1;HPM_P2
2024/02/10 00:01:34;;;;;;;2.40;1.55;;;11.50;99.90;;;;;;4146196;28;20026;-61
2024/02/10 00:03:35;;;;;;;3.65;1.70;;;11.50;99.90;;;;;;4143089;28;20120;-61
2024/02/10 00:05:36;;;;;;;3.22;1.60;;;11.50;99.90;;;;;;4142082;28;20112;-61
2024/02/10 00:07:37;;;;;;;5.30;1.90;;;11.50;99.90;;;;;;4143005;28;20042;-61
2024/02/10 00:09:37;;;;;;;3.88;1.70;;;11.50;99.90;;;;;;4139697;28;20096;-61
2024/02/10 00:11:38;;;;;;;2.85;1.63;;;11.50;99.90;;;;;;4143924;28;20116;-61
2024/02/10 00:13:41;;;;;;;3.85;1.65;;;11.50;99.90;;;;;;4143162;28;20041;-61
2024/02/10 00:15:42;;;;;;;4.50;1.90;;;11.50;99.90;;;;;;4139247;28;20405;-63
2024/02/10 00:17:42;;;;;;;6.45;1.80;;;11.50;99.90;;;;;;4142048;28;20053;-68
2024/02/10 00:19:49;;;;;;;2.78;1.60;;;11.50;99.90;;;;;;4141804;28;20111;-69
2024/02/10 00:21:50;;;;;;;4.55;2.17;;;11.40;99.90;;;;;;4143519;28;20037;-70
2024/02/10 00:23:50;;;;;;;5.55;1.75;;;11.50;99.90;;;;;;4141639;28;20034;-69
2024/02/10 00:25:54;;;;;;;6.28;2.03;;;11.40;99.90;;;;;;4144517;28;20065;-69
2024/02/10 00:27:55;;;;;;;2.60;1.60;;;11.40;99.90;;;;;;4136880;28;20402;-69
2024/02/10 00:29:55;;;;;;;4.55;1.92;;;11.40;99.90;;;;;;4136785;28;20030;-69
2024/02/10 00:31:58;;;;;;;4.43;1.45;;;11.40;99.90;;;;;;4140131;28;20395;-69
2024/02/10 00:34:00;;;;;;;3.70;1.70;;;11.40;99.90;;;;;;4140314;28;20399;-69
2024/02/10 00:36:00;;;;;;;2.22;1.63;;;11.40;99.90;;;;;;4140885;28;20031;-69
2024/02/10 00:38:01;;;;;;;2.95;1.75;;;11.40;99.90;;;;;;4136128;28;20033;-69
2024/02/10 00:40:04;;;;;;;3.90;1.60;;;11.30;99.90;;;;;;4140400;28;20038;-70
2024/02/10 00:42:04;;;;;;;3.53;1.80;;;11.30;99.90;;;;;;4142487;28;20026;-69
2024/02/10 00:44:05;;;;;;;3.47;1.75;;;11.30;99.90;;;;;;4146631;28;20038;-69
2024/02/10 00:46:08;;;;;;;3.10;1.80;;;11.30;99.90;;;;;;4139608;28;20460;-69
2024/02/10 00:48:08;;;;;;;3.65;1.63;;;11.30;99.90;;;;;;4141817;28;20515;-66
2024/02/10 00:50:09;;;;;;;3.25;1.65;;;11.30;99.90;;;;;;4141098;28;20123;-67
2024/02/10 00:52:09;;;;;;;5.05;1.85;;;11.30;99.90;;;;;;4142628;28;20038;-67
2024/02/10 00:54:10;;;;;;;5.35;1.90;;;11.30;99.90;;;;;;4146041;28;20124;-67
2024/02/10 00:56:11;;;;;;;2.65;1.75;;;11.30;99.90;;;;;;4147066;28;20042;-67
2024/02/10 00:58:12;;;;;;;3.03;1.77;;;11.30;99.90;;;;;;4141167;28;20509;-67
2024/02/10 01:00:17;;;;;;;4.07;1.73;;;11.30;99.90;;;;;;4141467;28;20034;-67
2024/02/10 01:02:21;;;;;;;3.22;1.83;;;11.30;99.90;;;;;;4138456;28;20453;-68
2024/02/10 01:04:22;;;;;;;5.63;2.10;;;11.30;99.90;;;;;;4143888;28;20061;-67
2024/02/10 01:06:22;;;;;;;2.90;1.50;;;11.30;99.90;;;;;;4142848;28;20481;-67
2024/02/10 01:08:23;;;;;;;3.45;1.95;;;11.30;99.90;;;;;;4145596;28;20041;-67
2024/02/10 01:10:23;;;;;;;5.13;1.92;;;11.30;99.90;;;;;;4143347;28;20037;-67
2024/02/10 01:12:24;;;;;;;3.67;1.60;;;11.30;99.90;;;;;;4144911;28;20053;-67
2024/02/10 01:14:29;;;;;;;5.22;1.75;;;11.20;99.90;;;;;;4146034;28;20390;-67
2024/02/10 01:16:32;;;;;;;4.80;1.80;;;11.20;99.90;;;;;;4136992;28;20489;-67
2024/02/10 01:18:36;;;;;;;6.05;2.17;;;11.20;99.90;;;;;;4141380;28;20501;-67
2024/02/10 01:20:36;;;;;;;3.47;1.33;;;11.20;99.90;;;;;;4138932;28;20088;-67
2024/02/10 01:22:41;;;;;;;4.20;1.60;;;11.20;99.90;;;;;;4141869;28;20489;-67
2024/02/10 01:24:42;;;;;;;3.95;1.55;;;11.10;99.90;;;;;;4141404;28;20041;-67
2024/02/10 01:26:42;;;;;;;3.03;1.52;;;11.10;99.90;;;;;;4142353;28;20184;-67
2024/02/10 01:28:44;;;;;;;1.95;1.05;;;11.10;99.90;;;;;;4141525;28;20128;-67
2024/02/10 01:30:45;;;;;;;2.90;1.40;;;11.10;99.90;;;;;;4143452;28;20061;-67
2024/02/10 01:32:46;;;;;;;2.75;1.55;;;11.10;99.90;;;;;;4146039;28;20360;-68
2024/02/10 01:34:48;;;;;;;3.53;1.30;;;11.00;99.90;;;;;;4145636;28;20429;-67
2024/02/10 01:36:49;;;;;;;3.10;1.50;;;11.00;99.90;;;;;;4142644;28;20026;-67
2024/02/10 01:38:50;;;;;;;3.20;1.08;;;11.00;99.90;;;;;;4145331;28;20042;-61
2024/02/10 01:40:51;;;;;;;3.03;1.60;;;11.00;99.90;;;;;;4141693;28;20068;-61
2024/02/10 01:42:52;;;;;;;3.22;1.45;;;11.00;99.90;;;;;;4144109;28;20030;-61
2024/02/10 01:44:53;;;;;;;1.73;1.05;;;11.00;99.90;;;;;;4145423;28;20126;-61
2024/02/10 01:46:55;;;;;;;3.00;1.40;;;11.00;99.90;;;;;;4145943;28;20755;-61
2024/02/10 01:48:58;;;;;;;3.00;1.60;;;11.00;99.90;;;;;;4145261;28;20156;-61
2024/02/10 01:50:59;;;;;;;2.50;1.58;;;11.00;99.90;;;;;;4144568;28;20456;-61
2024/02/10 01:53:00;;;;;;;3.20;1.73;;;11.00;99.90;;;;;;4143753;28;20113;-61
2024/02/10 01:55:01;;;;;;;4.60;2.22;;;11.00;99.90;;;;;;4147546;28;20406;-61
2024/02/10 01:57:05;;;;;;;4.35;2.40;;;11.00;99.90;;;;;;4146383;28;20033;-61
2024/02/10 01:59:09;;;;;;;5.15;2.55;;;11.00;99.90;;;;;;4144758;28;20061;-61
2024/02/10 02:01:10;;;;;;;5.60;2.40;;;10.90;99.90;;;;;;4144274;28;20042;-61
2024/02/10 02:03:12;;;;;;;8.00;2.88;;;11.00;99.90;;;;;;4148176;28;20113;-61
2024/02/10 02:05:13;;;;;;;5.80;2.95;;;11.00;99.90;;;;;;4143928;28;20464;-61
2024/02/10 02:07:14;;;;;;;4.70;3.00;;;10.90;99.90;;;;;;4146073;28;20739;-61
2024/02/10 02:09:15;;;;;;;6.28;3.28;;;10.90;99.90;;;;;;4143875;28;20052;-61
2024/02/10 02:11:16;;;;;;;6.47;3.47;;;11.00;99.90;;;;;;4143675;28;20046;-63
2024/02/10 02:13:22;;;;;;;6.82;3.25;;;11.00;99.90;;;;;;4144541;28;20041;-63
2024/02/10 02:15:27;;;;;;;5.60;3.30;;;11.00;99.90;;;;;;4142795;28;20075;-61
2024/02/10 02:17:27;;;;;;;7.93;4.10;;;11.00;99.90;;;;;;4142625;28;20514;-61
2024/02/10 02:19:29;;;;;;;7.90;3.60;;;11.00;99.90;;;;;;4144322;28;20042;-61
2024/02/10 02:21:32;;;;;;;8.95;3.53;;;11.00;99.90;;;;;;4144091;28;20046;-61
2024/02/10 02:23:35;;;;;;;5.53;3.25;;;11.10;99.90;;;;;;4147373;28;20034;-61
2024/02/10 02:25:36;;;;;;;6.95;3.53;;;11.00;99.90;;;;;;4145099;28;20052;-61
2024/02/10 02:27:37;;;;;;;5.20;3.53;;;11.10;99.90;;;;;;4145680;28;20029;-61
2024/02/10 02:29:38;;;;;;;7.13;3.25;;;11.10;99.90;;;;;;4141547;28;20136;-61
2024/02/10 02:31:38;;;;;;;7.82;3.30;;;11.10;99.90;;;;;;4139061;28;20041;-61
2024/02/10 02:33:40;;;;;;;6.38;3.35;;;11.10;99.90;;;;;;4141663;28;20026;-61
2024/02/10 02:35:43;;;;;;;6.80;3.00;;;11.10;99.90;;;;;;4143092;28;20406;-61
2024/02/10 02:37:43;;;;;;;8.63;4.00;;;11.10;99.90;;;;;;4147732;28;20118;-61
2024/02/10 02:39:44;;;;;;;7.40;3.63;;;11.10;99.90;;;;;;4143993;28;20037;-61
2024/02/10 02:41:45;;;;;;;4.97;3.25;;;11.10;99.90;;;;;;4142560;28;20567;-61
2024/02/10 02:43:46;;;;;;;7.53;3.20;;;11.20;99.90;;;;;;4145776;28;20471;-61
2024/02/10 02:45:48;;;;;;;5.03;2.70;;;11.20;99.90;;;;;;4143018;28;20402;-64
2024/02/10 02:47:51;;;;;;;5.93;3.63;;;11.30;99.90;;;;;;4142231;28;20441;-62
2024/02/10 02:49:52;;;;;;;5.25;3.63;;;11.20;99.90;;;;;;4144068;28;20053;-67
2024/02/10 02:51:54;;;;;;;5.25;3.30;;;11.30;99.90;;;;;;4143245;28;20038;-68
2024/02/10 02:53:57;;;;;;;5.72;3.50;;;11.20;99.90;;;;;;4145924;28;20034;-68
2024/02/10 02:55:58;;;;;;;4.50;3.15;;;11.30;99.90;;;;;;4145781;28;20045;-68
2024/02/10 02:58:01;;;;;;;4.60;3.20;;;11.30;99.90;;;;;;4147033;28;20421;-68
2024/02/10 03:00:02;;;;;;;5.57;3.45;;;11.20;99.90;;;;;;4146569;28;20042;-68
2024/02/10 03:02:05;;;;;;;6.53;3.72;;;11.20;99.90;;;;;;4142055;28;20049;-68
2024/02/10 03:04:05;;;;;;;8.13;3.20;;;11.20;99.90;;;;;;4144825;28;20041;-68
2024/02/10 03:06:06;;;;;;;4.57;3.42;;;11.20;99.90;;;;;;4143655;28;20138;-68
2024/02/10 03:08:07;;;;;;;4.10;3.00;;;11.20;99.90;;;;;;4143650;28;20049;-68
2024/02/10 03:10:08;;;;;;;8.15;4.22;;;11.20;99.90;;;;;;4142853;28;20034;-68
2024/02/10 03:12:08;;;;;;;8.27;4.40;;;11.20;99.90;;;;;;4144062;28;20117;-68
2024/02/10 03:14:09;;;;;;;6.50;4.13;;;11.20;99.90;;;;;;4143622;28;20034;-68
2024/02/10 03:16:09;;;;;;;9.95;4.40;;;11.20;99.90;;;;;;4144910;28;20041;-68
2024/02/10 03:18:12;;;;;;;6.78;3.97;;;11.20;99.90;;;;;;4146581;28;20076;-61
2024/02/10 03:20:13;;;;;;;6.28;3.78;;;11.20;99.90;;;;;;4145800;28;20030;-62
2024/02/10 03:22:13;;;;;;;5.15;3.13;;;11.10;99.90;;;;;;4144083;28;20109;-61
2024/02/10 03:24:16;;;;;;;6.85;4.15;;;11.10;99.90;;;;;;4143440;28;20088;-61
2024/02/10 03:26:17;;;;;;;;;;;11.10;99.90;;;;;;4146940;28;20076;-63
2024/02/10 03:28:17;;;;;;;6.95;4.28;;;11.10;99.90;;;;;;4146294;28;20365;-61
2024/02/10 03:30:18;;;;;;;8.88;4.13;;;11.10;99.90;;;;;;4145199;28;20133;-61
2024/02/10 03:32:18;;;;;;;6.57;3.90;;;11.00;99.90;;;;;;4150397;28;20416;-64
2024/02/10 03:34:19;;;;;;;5.75;4.53;;;11.10;99.90;;;;;;4150033;28;20049;-62
2024/02/10 03:36:20;;;;;;;7.32;3.95;;;11.00;99.90;;;;;;4141451;28;20533;-61
2024/02/10 03:38:22;;;;;;;6.18;3.83;;;11.00;99.90;;;;;;4141888;28;20034;-61
2024/02/10 03:40:23;;;;;;;8.55;4.25;;;11.00;99.90;;;;;;4140998;28;20041;-62
2024/02/10 03:42:24;;;;;;;5.20;3.90;;;11.00;99.90;;;;;;4143932;28;20041;-61
2024/02/10 03:44:25;;;;;;;7.53;4.70;;;11.00;99.90;;;;;;4143726;28;20049;-61
2024/02/10 03:46:26;;;;;;;7.72;4.50;;;11.00;99.90;;;;;;4142574;28;20048;-61
2024/02/10 03:48:26;;;;;;;4.47;3.42;;;11.00;99.90;;;;;;4143492;28;20060;-61
2024/02/10 03:50:27;;;;;;;5.85;3.92;;;11.00;99.90;;;;;;4142073;28;20077;-61
2024/02/10 03:52:27;;;;;;;4.47;3.55;;;11.00;99.90;;;;;;4143371;28;20065;-61
2024/02/10 03:54:28;;;;;;;6.70;3.67;;;11.00;99.90;;;;;;4143612;28;20041;-61
2024/02/10 03:56:28;;;;;;;5.78;3.35;;;11.00;99.90;;;;;;4149397;28;20058;-61
2024/02/10 03:58:29;;;;;;;6.18;3.78;;;11.00;99.90;;;;;;4142469;28;20038;-68
2024/02/10 04:00:36;;;;;;;5.93;3.78;;;11.00;99.90;;;;;;4136609;28;20034;-68
2024/02/10 04:02:36;;;;;;;4.78;3.65;;;11.00;99.90;;;;;;4141403;28;20030;-68
2024/02/10 04:04:37;;;;;;;7.25;4.22;;;11.00;99.90;;;;;;4140320;28;20465;-68
2024/02/10 04:06:39;;;;;;;5.82;3.63;;;11.00;99.90;;;;;;4139739;28;20038;-68
2024/02/10 04:08:40;;;;;;;4.70;3.83;;;10.90;99.90;;;;;;4139182;28;20821;-68
2024/02/10 04:10:40;;;;;;;8.55;3.72;;;10.90;99.90;;;;;;4137704;28;20435;-68
2024/02/10 04:12:42;;;;;;;6.93;4.15;;;10.90;99.90;;;;;;4136470;28;20461;-68
2024/02/10 04:14:42;;;;;;;6.03;3.72;;;10.80;99.90;;;;;;4139393;28;20040;-68
2024/02/10 04:16:46;;;;;;;4.75;3.58;;;10.90;99.90;;;;;;4149317;28;20401;-68
2024/02/10 04:18:49;;;;;;;5.78;3.83;;;10.80;99.90;;;;;;4141522;28;20026;-68
2024/02/10 04:20:49;;;;;;;5.20;3.65;;;10.80;99.90;;;;;;4143558;28;20037;-69
2024/02/10 04:22:50;;;;;;;5.38;3.75;;;10.80;99.90;;;;;;4143442;28;20117;-68
2024/02/10 04:24:53;;;;;;;4.30;3.40;;;10.80;99.90;;;;;;4139804;28;20045;-69
2024/02/10 04:26:53;;;;;;;5.38;3.67;;;10.70;99.90;;;;;;4142159;28;20062;-68
2024/02/10 04:28:54;;;;;;;5.30;3.05;;;10.70;99.90;;;;;;4142020;28;20038;-70
2024/02/10 04:30:55;;;;;;;5.25;3.30;;;10.70;99.90;;;;;;4137717;28;20502;-70
2024/02/10 04:32:56;;;;;;;9.77;3.88;;;10.70;99.90;;;;;;4138849;28;20038;-70
2024/02/10 04:34:56;;;;;;;4.15;3.42;;;10.70;99.90;;;;;;4141062;28;20042;-70
2024/02/10 04:36:58;;;;;;;4.90;3.30;;;10.70;99.90;;;;;;4137997;28;20128;-71
2024/02/10 04:38:59;;;;;;;5.75;3.47;;;10.70;99.90;;;;;;4139041;28;20046;-70
2024/02/10 04:41:04;;;;;;;6.57;3.25;;;10.70;99.90;;;;;;4137844;28;20087;-71
2024/02/10 04:43:05;;;;;;;5.53;3.65;;;10.60;99.90;;;;;;4142044;28;20036;-70
2024/02/10 04:45:06;;;;;;;6.70;3.75;;;10.70;99.90;;;;;;4144475;28;20084;-70
2024/02/10 04:47:06;;;;;;;6.55;4.03;;;10.60;99.90;;;;;;4140804;28;20437;-70
2024/02/10 04:49:07;;;;;;;4.88;3.55;;;10.60;99.90;;;;;;4141339;28;20502;-71
2024/02/10 04:51:08;;;;;;;4.60;3.45;;;10.60;99.90;;;;;;4140430;28;20121;-70
2024/02/10 04:53:08;;;;;;;4.75;3.33;;;10.60;99.90;;;;;;4141427;28;20030;-70
2024/02/10 04:55:09;;;;;;;7.35;4.13;;;10.60;99.90;;;;;;4141673;28;20060;-70
2024/02/10 04:57:10;;;;;;;6.35;3.60;;;10.50;99.90;;;;;;4147512;28;20069;-70
2024/02/10 04:59:18;;;;;;;4.40;3.15;;;10.50;99.90;;;;;;4141222;28;20124;-70
2024/02/10 05:01:21;;;;;;;7.40;3.60;;;10.50;99.90;;;;;;4141119;28;20084;-70
2024/02/10 05:03:22;;;;;;;6.03;3.70;;;10.50;99.90;;;;;;4142640;28;20129;-70
2024/02/10 05:05:22;;;;;;;5.70;3.88;;;10.50;99.90;;;;;;4146639;28;20046;-70
2024/02/10 05:07:23;;;;;;;6.43;4.03;;;10.50;99.90;;;;;;4144353;28;20038;-70
2024/02/10 05:09:24;;;;;;;5.95;3.50;;;10.50;99.90;;;;;;4146040;28;20054;-70
2024/02/10 05:11:24;;;;;;;6.47;3.78;;;10.50;99.90;;;;;;4143842;28;20516;-71
2024/02/10 05:13:25;;;;;;;8.30;4.35;;;10.40;99.90;;;;;;4146464;28;20044;-70
2024/02/10 05:15:26;;;;;;;6.13;4.05;;;10.50;99.90;;;;;;4144346;28;20052;-70
2024/02/10 05:17:26;;;;;;;4.18;3.25;;;10.50;99.90;;;;;;4144265;28;20493;-70
2024/02/10 05:19:27;;;;;;;5.38;3.58;;;10.40;99.90;;;;;;4145646;28;20049;-70
2024/02/10 05:21:28;;;;;;;5.45;3.38;;;10.40;99.90;;;;;;4146929;28;20470;-70
2024/02/10 05:23:28;;;;;;;4.55;3.20;;;10.40;99.90;;;;;;4128509;28;20030;-70
2024/02/10 05:25:35;;;;;;;3.67;2.92;;;10.40;99.90;;;;;;4145289;28;20038;-70
2024/02/10 05:27:35;;;;;;;5.57;3.20;;;10.40;99.90;;;;;;4145407;28;20387;-70
2024/02/10 05:29:36;;;;;;;5.45;3.45;;;10.40;99.90;;;;;;4144191;28;20072;-70
2024/02/10 05:31:37;;;;;;;7.43;3.40;;;10.40;99.90;;;;;;4151627;28;20029;-70
2024/02/10 05:33:45;;;;;;;4.47;3.15;;;10.40;99.90;;;;;;4149713;28;20042;-70
2024/02/10 05:35:46;;;;;;;3.70;3.15;;;10.40;99.90;;;;;;4145028;28;20040;-70
2024/02/10 05:37:49;;;;;;;4.82;3.08;;;10.40;99.90;;;;;;4145900;28;20033;-62
2024/02/10 05:39:50;;;;;;;3.92;3.05;;;10.40;99.90;;;;;;4141788;28;20038;-68
2024/02/10 05:41:52;;;;;;;4.85;3.00;;;10.30;99.90;;;;;;4145451;28;20116;-68
2024/02/10 05:43:53;;;;;;;4.50;2.95;;;10.30;99.90;;;;;;4145830;28;20501;-68
2024/02/10 05:45:54;;;;;;;4.45;2.80;;;10.40;99.90;;;;;;4145445;28;20037;-68
2024/02/10 05:47:54;;;;;;;3.60;3.00;;;10.40;99.90;;;;;;4146220;28;20486;-68
2024/02/10 05:49:55;;;;;;;2.92;2.42;;;10.40;99.90;;;;;;4144027;28;20050;-68
2024/02/10 05:51:56;;;;;;;4.13;2.63;;;10.30;99.90;;;;;;4146509;28;20065;-68
2024/02/10 05:53:56;;;;;;;3.92;3.00;;;10.30;99.90;;;;;;4148393;28;20529;-68
2024/02/10 05:55:57;;;;;;;3.30;2.58;;;10.40;99.90;;;;;;4144862;28;20096;-68
2024/02/10 05:58:01;;;;;;;3.88;2.70;;;10.30;99.90;;;;;;4148370;28;20525;-68
2024/02/10 06:00:04;;;;;;;3.40;2.92;;;10.30;99.90;;;;;;4142910;28;20042;-68
2024/02/10 06:02:05;;;;;;;3.42;2.65;;;10.30;99.90;;;;;;4145658;28;20069;-68
2024/02/10 06:04:09;;;;;;;4.90;3.17;;;10.30;99.90;;;;;;4143739;28;20042;-68
2024/02/10 06:06:09;;;;;;;4.20;2.85;;;10.30;99.90;;;;;;4140954;28;20450;-68
2024/02/10 06:08:13;;;;;;;6.22;2.60;;;10.30;99.90;;;;;;4142512;28;20068;-68
2024/02/10 06:10:15;;;;;;;2.88;2.58;;;10.30;99.90;;;;;;4142523;28;20030;-68
2024/02/10 06:12:15;;;;;;;3.67;2.63;;;10.30;99.90;;;;;;4142811;28;20149;-68
2024/02/10 06:14:16;;;;;;;3.20;2.55;;;10.30;99.90;;;;;;4141469;28;20532;-68
2024/02/10 06:16:16;;;;;;;5.28;2.65;;;10.30;99.90;;;;;;4143655;28;20417;-68
2024/02/10 06:18:17;;;;;;;3.60;2.75;;;10.30;99.90;;;;;;4142591;28;20604;-68
2024/02/10 06:20:22;;;;;;;4.18;3.30;;;10.30;99.90;;;;;;4142789;28;20029;-68
2024/02/10 06:22:26;;;;;;;5.25;3.17;;;10.30;99.90;;;;;;4135323;28;20320;-68
2024/02/10 06:24:27;;;;;;;6.10;3.13;;;10.30;99.90;;;;;;4144572;28;20034;-68
2024/02/10 06:26:30;;;;;;;3.28;2.50;;;10.30;99.90;;;;;;4144734;28;20497;-68
2024/02/10 06:28:31;;;;;;;5.05;3.15;;;10.30;99.90;;;;;;4141056;28;20442;-68
2024/02/10 06:30:33;;;;;;;3.47;2.25;;;10.20;99.90;;;;;;4139983;28;20380;-68
2024/02/10 06:32:36;;;;;;;3.45;2.30;;;10.30;99.90;;;;;;4145810;28;20529;-68
2024/02/10 06:34:38;;;;;;;3.28;2.75;;;10.30;99.90;;;;;;4142109;28;20033;-68
2024/02/10 06:36:47;;;;;;;3.42;2.67;;;10.30;99.90;;;;;;4140154;28;20532;-68
2024/02/10 06:38:48;;;;;;;4.82;3.08;;;10.30;99.90;;;;;;4138791;28;20117;-68
2024/02/10 06:40:48;;;;;;;3.58;2.78;;;10.30;99.90;;;;;;4140942;28;20065;-68
2024/02/10 06:42:51;;;;;;;4.60;2.88;;;10.30;99.90;;;;;;4142780;28;20064;-68
2024/02/10 06:44:51;;;;;;;;;;;10.30;99.90;;;;;;4141868;28;20034;-69
2024/02/10 06:46:52;;;;;;;3.75;2.80;;;10.30;99.90;;;;;;4143919;28;20384;-69
2024/02/10 06:48:52;;;;;;;3.13;2.55;;;10.30;99.90;;;;;;4145136;28;20063;-67
2024/02/10 06:50:56;;;;;;;3.38;3.03;;;10.20;99.90;;;;;;4143038;28;20034;-66
2024/02/10 06:53:00;;;;;;;3.55;2.75;;;10.20;99.90;;;;;;4145559;28;20463;-66
2024/02/10 06:55:01;;;;;;;4.03;2.70;;;10.20;99.90;;;;;;4142933;28;20525;-66
2024/02/10 06:57:02;;;;;;;4.22;2.72;;;10.20;99.90;;;;;;4139177;28;20081;-66
2024/02/10 06:59:03;;;;;;;4.53;3.17;;;10.20;99.90;;;;;;4140534;28;21115;-66
2024/02/10 07:01:04;;;;;;;3.50;2.90;;;10.20;99.90;;;;;;4143367;28;20038;-65
2024/02/10 07:03:05;;;;;;;3.53;2.78;;;10.20;99.90;;;;;;4143414;28;20112;-66
2024/02/10 07:05:06;;;;;;;3.50;2.97;;;10.20;99.90;;;;;;4143166;28;20062;-66
2024/02/10 07:07:07;;;;;;;5.00;2.83;;;10.20;99.90;;;;;;4142449;28;20042;-65
2024/02/10 07:09:07;;;;;;;4.35;3.05;;;10.20;99.90;;;;;;4142818;28;20137;-66
2024/02/10 07:11:08;;;;;;;4.63;3.05;;;10.20;99.90;;;;;;4142246;28;20042;-65
2024/02/10 07:13:08;;;;;;;4.65;2.90;;;10.20;99.90;;;;;;4143546;28;20046;-65
2024/02/10 07:15:19;;;;;;;3.28;2.55;;;10.20;99.90;;;;;;4143968;28;20060;-66
2024/02/10 07:17:20;;;;;;;5.30;3.50;;;10.20;99.90;;;;;;4141838;28;20038;-66
2024/02/10 07:19:20;;;;;;;4.30;3.20;;;10.20;99.90;;;;;;4143424;28;20042;-65
2024/02/10 07:21:21;;;;;;;4.75;2.90;;;10.10;99.90;;;;;;4142123;28;20029;-65
2024/02/10 07:23:26;;;;;;;4.68;3.17;;;10.20;99.90;;;;;;4126612;28;20036;-65
2024/02/10 07:25:37;;;;;;;8.15;3.15;;;10.10;99.90;;;;;;4141100;28;20069;-66
2024/02/10 07:27:38;;;;;;;4.43;3.10;;;10.20;99.90;;;;;;4141788;28;20529;-61
2024/02/10 07:29:44;;;;;;;4.15;2.90;;;10.10;99.90;;;;;;4140688;28;20042;-71
2024/02/10 07:31:46;;;;;;;3.65;3.03;;;10.20;99.90;;;;;;4142873;28;20381;-70
2024/02/10 07:33:47;;;;;;;4.78;3.22;;;10.10;99.90;;;;;;4146816;28;20036;-71
2024/02/10 07:35:50;;;;;;;4.72;3.20;;;10.20;99.90;;;;;;4140624;28;20101;-70
2024/02/10 07:37:50;;;;;;;4.13;2.88;;;10.10;99.90;;;;;;4138921;28;20076;-70
2024/02/10 07:39:51;;;;;;;3.72;2.88;;;10.20;99.90;;;;;;4146047;28;20128;-70
2024/02/10 07:41:51;;;;;;;3.83;3.20;;;10.20;99.90;;;;;;4144596;28;20037;-71
2024/02/10 07:43:52;;;;;;;5.57;3.33;;;10.20;99.90;;;;;;4139829;28;20490;-70
2024/02/10 07:45:55;;;;;;;3.38;2.70;;;10.30;99.90;;;;;;4139650;28;20611;-69
2024/02/10 07:47:55;;;;;;;4.93;3.10;;;10.20;99.90;;;;;;4139280;28;20036;-71
2024/02/10 07:49:58;;;;;;;3.33;3.03;;;10.30;99.90;;;;;;4144157;28;20045;-70
2024/02/10 07:51:58;;;;;;;4.68;3.33;;;10.30;99.90;;;;;;4147233;28;20234;-70
2024/02/10 07:53:59;;;;;;;5.63;3.30;;;10.40;99.90;;;;;;4143957;28;20053;-70
2024/02/10 07:56:01;;;;;;;4.47;3.28;;;10.50;99.90;;;;;;4145837;28;20038;-70
2024/02/10 07:58:04;;;;;;;4.68;3.63;;;10.50;99.90;;;;;;4142952;28;20430;-61
2024/02/10 08:00:06;;;;;;;6.95;3.30;;;10.50;99.90;;;;;;4142572;28;20048;-62
2024/02/10 08:02:09;;;;;;;4.00;3.17;;;10.50;99.90;;;;;;4144986;28;20188;-61
2024/02/10 08:04:09;;;;;;;6.55;3.42;;;10.50;99.90;;;;;;4142703;28;20088;-60
2024/02/10 08:06:10;;;;;;;4.35;3.20;;;10.50;99.90;;;;;;4142673;28;20045;-60
2024/02/10 08:08:10;;;;;;;5.32;3.45;;;10.60;99.90;;;;;;4148535;28;20034;-60
2024/02/10 08:10:11;;;;;;;3.28;2.78;;;10.50;99.90;;;;;;4142186;28;20188;-61
2024/02/10 08:12:17;;;;;;;4.55;3.25;;;10.60;99.90;;;;;;4140493;28;20033;-60
2024/02/10 08:14:19;;;;;;;4.68;2.85;;;10.60;99.90;;;;;;4137926;28;20038;-60
2024/02/10 08:16:21;;;;;;;6.37;2.83;;;10.60;99.90;;;;;;4142545;28;20045;-60
2024/02/10 08:18:22;;;;;;;3.17;2.70;;;10.60;99.90;;;;;;4145771;28;20037;-60
2024/02/10 08:20:23;;;;;;;3.90;2.75;;;10.60;99.90;;;;;;4144976;28;20505;-60
2024/02/10 08:22:24;;;;;;;3.08;2.50;;;10.60;99.90;;;;;;4144750;28;20041;-62
2024/02/10 08:24:31;;;;;;;3.45;2.30;;;10.70;99.90;;;;;;4140070;28;20034;-60
2024/02/10 08:26:32;;;;;;;6.53;3.25;;;10.70;99.90;;;;;;4141552;28;20112;-61
2024/02/10 08:28:32;;;;;;;4.40;3.08;;;10.70;99.90;;;;;;4144194;28;20053;-60
2024/02/10 08:30:34;;;;;;;4.43;2.85;;;10.70;99.90;;;;;;4139821;28;20025;-61
2024/02/10 08:32:34;;;;;;;3.72;2.70;;;10.70;99.90;;;;;;4146359;28;20036;-60
2024/02/10 08:34:38;;;;;;;5.03;3.03;;;10.70;99.90;;;;;;4142594;28;20029;-61
2024/02/10 08:36:38;;;;;;;4.28;2.45;;;10.70;99.90;;;;;;4145972;28;20437;-60
2024/02/10 08:38:40;;;;;;;5.38;3.08;;;10.70;99.90;;;;;;4142639;28;20038;-67
2024/02/10 08:40:41;;;;;;;5.75;3.17;;;10.70;99.90;;;;;;4140538;28;20044;-67
2024/02/10 08:42:41;;;;;;;3.10;2.47;;;10.80;99.90;;;;;;4138075;28;20073;-67
2024/02/10 08:44:45;;;;;;;5.45;2.92;;;10.80;99.90;;;;;;4136720;28;20040;-67
2024/02/10 08:46:46;;;;;;;3.65;2.80;;;10.80;99.90;;;;;;4133061;28;20046;-67
2024/02/10 08:48:47;;;;;;;3.50;2.88;;;10.80;99.90;;;;;;4138787;28;20049;-67
2024/02/10 08:50:48;;;;;;;5.60;3.20;;;10.80;99.90;;;;;;4140063;28;20042;-67
2024/02/10 08:52:48;;;;;;;3.58;2.90;;;10.80;99.90;;;;;;4142739;28;20108;-67
2024/02/10 08:54:49;;;;;;;3.90;2.78;;;10.90;99.90;;;;;;4141174;28;20049;-67
2024/02/10 08:56:49;;;;;;;4.70;2.83;;;10.90;99.90;;;;;;4142635;28;20037;-67
2024/02/10 08:58:50;;;;;;;3.75;2.40;;;10.90;99.90;;;;;;4141456;28;20050;-67
2024/02/10 09:00:51;;;;;;;4.15;2.92;;;11.00;99.90;;;;;;4140524;28;20036;-67
2024/02/10 09:02:53;;;;;;;3.53;2.58;;;11.00;99.90;;;;;;4149602;28;20478;-67
2024/02/10 09:04:54;;;;;;;3.90;3.13;;;11.00;99.90;;;;;;4144173;28;20712;-68
2024/02/10 09:06:54;;;;;;;4.20;2.90;;;11.10;99.90;;;;;;4142845;28;20030;-67
2024/02/10 09:08:55;;;;;;;3.38;2.42;;;11.10;99.90;;;;;;4142395;28;20046;-69
2024/02/10 09:10:55;;;;;;;4.10;2.78;;;11.10;99.90;;;;;;4141382;28;20034;-69
2024/02/10 09:12:59;;;;;;;3.47;2.70;;;11.10;99.90;;;;;;4144247;28;20030;-70
2024/02/10 09:15:00;;;;;;;6.03;2.60;;;11.10;99.90;;;;;;4147597;28;20095;-71
2024/02/10 09:17:00;;;;;;;4.57;3.03;;;11.20;99.90;;;;;;4142329;28;20084;-71
2024/02/10 09:19:01;;;;;;;2.83;2.33;;;11.20;99.90;;;;;;4140293;28;20121;-71
2024/02/10 09:21:02;;;;;;;2.70;2.28;;;11.20;99.90;;;;;;4136531;28;20046;-71
2024/02/10 09:23:03;;;;;;;4.38;2.60;;;11.30;99.90;;;;;;4142327;28;20030;-71
2024/02/10 09:25:04;;;;;;;3.88;2.58;;;11.30;99.90;;;;;;4141708;28;20061;-72
2024/02/10 09:27:08;;;;;;;4.50;2.80;;;11.30;99.90;;;;;;4142022;28;20034;-70
2024/02/10 09:29:09;;;;;;;2.78;2.40;;;11.40;99.90;;;;;;4141051;28;20046;-71
2024/02/10 09:31:13;;;;;;;3.72;2.13;;;11.40;99.90;;;;;;4141066;28;20062;-70
2024/02/10 09:33:21;;;;;;;3.97;2.45;;;11.40;99.90;;;;;;4141745;28;20049;-71
2024/02/10 09:35:23;;;;;;;7.68;2.95;;;11.50;99.90;;;;;;4138532;28;20033;-70
2024/02/10 09:37:23;;;;;;;3.17;2.30;;;11.50;99.90;;;;;;4136551;28;20039;-71
2024/02/10 09:39:24;;;;;;;3.05;2.38;;;11.60;99.90;;;;;;4142629;28;20279;-71
2024/02/10 09:41:24;;;;;;;2.85;2.22;;;11.50;99.90;;;;;;4144250;28;21202;-69
2024/02/10 09:43:34;;;;;;;3.53;2.10;;;11.60;99.90;;;;;;4145014;28;20738;-69
2024/02/10 09:45:41;;;;;;;3.15;2.20;;;11.70;99.90;;;;;;4142761;28;20550;-70
2024/02/10 09:47:47;;;;;;;2.55;1.92;;;11.70;99.90;;;;;;4142953;28;20522;-61
2024/02/10 09:49:51;;;;;;;3.15;2.10;;;11.70;99.90;;;;;;4124583;28;20093;-72
2024/02/10 09:51:51;;;;;;;2.83;2.17;;;11.80;99.90;;;;;;4148042;28;20033;-71
2024/02/10 09:53:52;;;;;;;3.67;2.63;;;11.80;99.90;;;;;;4147571;28;20398;-71
2024/02/10 09:55:56;;;;;;;3.45;2.20;;;11.80;99.90;;;;;;4145405;28;20180;-71
2024/02/10 09:58:00;;;;;;;3.28;1.95;;;11.90;99.90;;;;;;4144039;28;20061;-71
2024/02/10 10:00:02;;;;;;;2.38;1.90;;;11.90;99.90;;;;;;4143379;28;20042;-72
2024/02/10 10:02:07;;;;;;;2.53;1.98;;;12.00;99.90;;;;;;4144987;28;20513;-72
2024/02/10 10:04:10;;;;;;;2.20;1.90;;;12.00;99.90;;;;;;4144690;28;20417;-71
2024/02/10 10:06:11;;;;;;;3.20;2.40;;;12.10;99.90;;;;;;4147732;28;20120;-71
2024/02/10 10:08:12;;;;;;;2.75;1.77;;;12.10;99.90;;;;;;4150167;28;20034;-71
2024/02/10 10:10:12;;;;;;;2.58;1.98;;;12.20;99.90;;;;;;4151312;28;20042;-71
2024/02/10 10:12:18;;;;;;;2.30;1.60;;;12.20;99.90;;;;;;4141757;28;20061;-72
2024/02/10 10:14:19;;;;;;;4.18;1.95;;;12.30;99.90;;;;;;4146051;28;20046;-72
2024/02/10 10:16:21;;;;;;;2.30;1.52;;;12.30;99.90;;;;;;4143563;28;20092;-71
2024/02/10 10:18:23;;;;;;;2.33;1.67;;;12.40;99.90;;;;;;4149750;28;20444;-67
2024/02/10 10:20:23;;;;;;;4.40;2.25;;;12.40;99.90;;;;;;4152998;28;20037;-67
2024/02/10 10:22:24;;;;;;;1.60;1.30;;;12.60;99.90;;;;;;4150718;28;20030;-67
2024/02/10 10:24:25;;;;;;;2.30;1.38;;;12.60;99.90;;;;;;4149907;28;20038;-67
2024/02/10 10:26:26;;;;;;;1.55;1.40;;;12.70;99.90;;;;;;4145591;28;20052;-68
2024/02/10 10:28:29;;;;;;;2.78;1.58;;;12.80;99.90;;;;;;4147195;28;20498;-68
2024/02/10 10:30:33;;;;;;;2.63;1.50;;;12.90;99.90;;;;;;4143523;28;20041;-67
2024/02/10 10:32:36;;;;;;;2.65;1.10;;;12.90;99.90;;;;;;4144712;28;20088;-67
2024/02/10 10:34:38;;;;;;;1.83;1.52;;;13.00;99.90;;;;;;4144070;28;20066;-67